Time;durP1;ratioP1;P1;durP2;ratioP2;P2;SDS_P1;SDS_P2;PMS_P1;PMS_P2;Temp;Humidity;BMP_temperature;BMP_pressure;BME280_temperature;BME280_humidity;BME280_pressure;Samples;Min_cycle;Max_cycle;Signal;HPM_P1;HPM_P2
2024/02/12 00:00:35;;;;;;;6.03;5.70;;;9.40;29.10;;;;;;5016234;28;20432;-78
2024/02/12 00:03:02;;;;;;;5.73;5.43;;;9.40;29.20;;;;;;5015333;28;20506;-79
2024/02/12 00:05:28;;;;;;;5.00;4.80;;;9.40;29.40;;;;;;5014495;28;20506;-81
2024/02/12 00:07:54;;;;;;;5.17;4.97;;;9.30;29.30;;;;;;5013630;28;20447;-81
2024/02/12 00:10:19;;;;;;;5.70;5.50;;;9.30;29.70;;;;;;5016214;28;20808;-79
2024/02/12 00:12:45;;;;;;;4.90;4.70;;;9.20;29.70;;;;;;5013924;28;20197;-83
2024/02/12 00:15:11;;;;;;;5.07;4.97;;;9.30;29.90;;;;;;5014016;28;20278;-79
2024/02/12 00:17:38;;;;;;;5.43;5.23;;;9.30;29.70;;;;;;5013023;28;20194;-80
2024/02/12 00:20:10;;;;;;;5.10;4.90;;;9.30;29.60;;;;;;5013663;28;20524;-82
2024/02/12 00:22:37;;;;;;;4.97;4.87;;;9.30;29.80;;;;;;5013659;28;20969;-81
2024/02/12 00:25:05;;;;;;;5.67;5.47;;;9.20;30.20;;;;;;5013945;28;20529;-80
2024/02/12 00:27:34;;;;;;;4.97;4.57;;;9.10;30.30;;;;;;5013412;28;20814;-78
2024/02/12 00:30:00;;;;;;;5.70;5.40;;;9.10;30.50;;;;;;5015366;28;20522;-81
2024/02/12 00:32:28;;;;;;;5.23;4.93;;;9.10;30.90;;;;;;5013764;28;20478;-80
2024/02/12 00:34:57;;;;;;;4.47;4.37;;;9.10;30.90;;;;;;5005766;28;20216;-81
2024/02/12 00:37:26;;;;;;;5.37;5.17;;;9.10;30.90;;;;;;5014130;28;20432;-79
2024/02/12 00:39:52;;;;;;;5.10;4.90;;;9.20;30.80;;;;;;5015735;28;20514;-81
2024/02/12 00:42:18;;;;;;;5.00;4.83;;;9.20;31.20;;;;;;5016528;28;20435;-79
2024/02/12 00:44:44;;;;;;;4.77;4.67;;;9.20;31.20;;;;;;5016544;28;20489;-80
2024/02/12 00:47:10;;;;;;;5.37;5.17;;;9.20;30.50;;;;;;5016599;28;20428;-80
2024/02/12 00:49:35;;;;;;;5.57;5.30;;;9.20;31.30;;;;;;5018583;28;20268;-78
2024/02/12 00:52:03;;;;;;;5.90;5.70;;;9.30;31.30;;;;;;5017099;28;20562;-79
2024/02/12 00:54:29;;;;;;;5.53;5.20;;;9.30;31.90;;;;;;5017233;28;20209;-80
2024/02/12 00:56:57;;;;;;;5.07;4.87;;;9.30;31.90;;;;;;5016732;28;20428;-79
2024/02/12 00:59:23;;;;;;;5.70;5.50;;;9.30;31.90;;;;;;5019169;28;20428;-80
2024/02/12 01:01:49;;;;;;;5.47;5.27;;;9.30;31.90;;;;;;5018202;28;20435;-79
2024/02/12 01:04:15;;;;;;;5.37;5.17;;;9.30;31.90;;;;;;5018476;28;20448;-81
2024/02/12 01:06:42;;;;;;;4.90;4.80;;;9.30;31.90;;;;;;5019538;28;20840;-81
2024/02/12 01:09:11;;;;;;;4.63;4.50;;;9.30;31.90;;;;;;5019265;28;20239;-79
2024/02/12 01:11:38;;;;;;;5.43;5.23;;;9.40;31.90;;;;;;5018239;28;20442;-81
2024/02/12 01:14:04;;;;;;;5.83;5.53;;;9.60;31.80;;;;;;5019482;28;20884;-79
2024/02/12 01:16:32;;;;;;;4.97;4.77;;;9.70;31.30;;;;;;5018540;28;20432;-81
2024/02/12 01:18:58;;;;;;;5.13;4.93;;;9.90;31.10;;;;;;5011192;28;20420;-79
2024/02/12 01:21:25;;;;;;;5.70;5.50;;;10.00;29.10;;;;;;5019035;28;20919;-80
2024/02/12 01:23:51;;;;;;;5.87;5.57;;;10.10;28.60;;;;;;5019406;28;20947;-81
2024/02/12 01:26:16;;;;;;;5.07;4.97;;;9.90;29.80;;;;;;5020291;28;20534;-79
2024/02/12 01:28:42;;;;;;;5.23;5.03;;;9.70;29.90;;;;;;5021894;28;20216;-80
2024/02/12 01:31:15;;;;;;;6.17;5.77;;;9.60;30.20;;;;;;5024276;28;20189;-81
2024/02/12 01:33:40;;;;;;;7.10;5.10;;;9.50;30.50;;;;;;5019550;28;20209;-80
2024/02/12 01:36:07;;;;;;;5.30;5.10;;;9.50;31.10;;;;;;5018114;28;20471;-79
2024/02/12 01:38:33;;;;;;;5.60;5.40;;;9.70;31.40;;;;;;5020665;28;20188;-79
2024/02/12 01:40:59;;;;;;;5.30;5.10;;;9.90;30.60;;;;;;5020525;28;20431;-80
2024/02/12 01:43:31;;;;;;;5.90;5.70;;;10.10;29.00;;;;;;5022875;28;20459;-81
2024/02/12 01:45:59;;;;;;;5.30;5.10;;;10.20;28.90;;;;;;5019865;28;20424;-80
2024/02/12 01:48:25;;;;;;;5.50;5.30;;;10.30;28.40;;;;;;5019934;28;20428;-79
2024/02/12 01:50:51;;;;;;;5.83;5.63;;;10.40;28.10;;;;;;5022796;28;20419;-81
2024/02/12 01:53:17;;;;;;;5.97;5.77;;;10.50;28.10;;;;;;5021653;28;20944;-79
2024/02/12 01:55:46;;;;;;;5.30;5.00;;;10.50;27.80;;;;;;5020074;28;20704;-82
2024/02/12 01:58:14;;;;;;;5.47;5.27;;;10.70;27.60;;;;;;5018280;28;20783;-82
2024/02/12 02:00:42;;;;;;;5.80;5.60;;;10.70;27.30;;;;;;5018836;28;20416;-81
2024/02/12 02:03:08;;;;;;;5.70;5.50;;;10.70;26.70;;;;;;5018776;28;20455;-82
2024/02/12 02:05:35;;;;;;;5.67;5.47;;;10.70;26.80;;;;;;5021899;28;20500;-80
2024/02/12 02:08:01;;;;;;;5.73;5.53;;;10.50;26.70;;;;;;5022476;28;20422;-81
2024/02/12 02:10:27;;;;;;;5.80;5.63;;;10.20;27.70;;;;;;5023219;28;20452;-79
2024/02/12 02:12:53;;;;;;;5.73;5.53;;;10.10;28.20;;;;;;5021414;28;20181;-82
2024/02/12 02:15:19;;;;;;;6.00;5.77;;;10.10;28.40;;;;;;5021070;28;20525;-82
2024/02/12 02:17:45;;;;;;;5.87;5.67;;;10.10;28.30;;;;;;5018887;28;20428;-80
2024/02/12 02:20:12;;;;;;;5.73;5.53;;;10.10;28.50;;;;;;5020093;28;20427;-81
2024/02/12 02:22:38;;;;;;;6.20;6.00;;;10.10;28.30;;;;;;5021180;28;20178;-80
2024/02/12 02:25:05;;;;;;;5.77;5.57;;;10.10;28.40;;;;;;5018515;28;20530;-82
2024/02/12 02:27:31;;;;;;;6.07;5.77;;;10.00;28.00;;;;;;5019785;28;20420;-81
2024/02/12 02:29:56;;;;;;;6.10;5.90;;;10.10;28.30;;;;;;5020060;28;20468;-81
2024/02/12 02:32:22;;;;;;;5.73;5.53;;;10.00;28.20;;;;;;5018297;28;20177;-83
2024/02/12 02:34:47;;;;;;;5.97;5.83;;;9.90;29.00;;;;;;5019466;28;20216;-82
2024/02/12 02:37:13;;;;;;;6.40;6.20;;;9.60;29.90;;;;;;5017707;28;20174;-80
2024/02/12 02:39:38;;;;;;;6.17;5.97;;;9.40;30.70;;;;;;5018890;28;20197;-81
2024/02/12 02:42:05;;;;;;;6.20;6.00;;;9.20;31.80;;;;;;5019244;28;20278;-80
2024/02/12 02:44:32;;;;;;;6.40;6.20;;;9.10;31.70;;;;;;5019278;28;20235;-80
2024/02/12 02:46:57;;;;;;;6.50;6.30;;;9.10;32.00;;;;;;5019620;28;20486;-81
2024/02/12 02:49:24;;;;;;;6.17;5.97;;;9.10;32.30;;;;;;5018275;28;20444;-81
2024/02/12 02:51:50;;;;;;;6.00;5.80;;;9.30;31.90;;;;;;5019954;28;20269;-81
2024/02/12 02:54:15;;;;;;;5.87;5.70;;;9.40;31.30;;;;;;5020471;28;20460;-81
2024/02/12 02:56:41;;;;;;;6.03;5.83;;;9.30;31.40;;;;;;5020555;28;20186;-81
2024/02/12 02:59:09;;;;;;;6.00;5.70;;;9.30;31.30;;;;;;5019591;28;20177;-82
2024/02/12 03:01:34;;;;;;;5.87;5.60;;;9.30;31.30;;;;;;5022178;28;20220;-81
2024/02/12 03:04:00;;;;;;;5.43;5.33;;;9.40;31.40;;;;;;5019779;28;20654;-81
2024/02/12 03:06:26;;;;;;;5.60;5.30;;;9.40;30.90;;;;;;5019911;28;20185;-81
2024/02/12 03:08:52;;;;;;;6.17;5.97;;;9.50;30.70;;;;;;5019957;28;20209;-80
2024/02/12 03:11:25;;;;;;;6.00;5.80;;;9.60;30.10;;;;;;5019036;28;20209;-82
2024/02/12 03:13:51;;;;;;;5.33;5.13;;;9.80;29.60;;;;;;5019992;28;20470;-81
2024/02/12 03:16:17;;;;;;;5.40;5.30;;;9.80;29.40;;;;;;5020261;28;20463;-80
2024/02/12 03:18:46;;;;;;;5.03;4.93;;;9.70;29.60;;;;;;5028186;28;20182;-81
2024/02/12 03:21:19;;;;;;;6.00;5.80;;;9.60;30.00;;;;;;5018941;28;20420;-81
2024/02/12 03:23:46;;;;;;;5.97;5.77;;;9.50;30.20;;;;;;5018775;28;20979;-81
2024/02/12 03:26:11;;;;;;;6.30;6.10;;;9.40;30.60;;;;;;5019991;28;20798;-81
2024/02/12 03:28:37;;;;;;;7.17;6.87;;;9.40;30.70;;;;;;5020500;28;20435;-80
2024/02/12 03:31:04;;;;;;;6.40;6.10;;;9.40;31.30;;;;;;5019930;28;20216;-80
2024/02/12 03:33:30;;;;;;;5.73;5.53;;;9.50;31.00;;;;;;5020544;28;20197;-81
2024/02/12 03:35:56;;;;;;;5.97;5.77;;;9.50;30.80;;;;;;5019706;28;20474;-81
2024/02/12 03:38:24;;;;;;;6.40;6.20;;;9.60;30.70;;;;;;5019299;28;20424;-81
2024/02/12 03:40:50;;;;;;;6.50;6.30;;;9.60;30.50;;;;;;5017180;28;20245;-81
2024/02/12 03:43:17;;;;;;;6.73;6.43;;;9.60;30.90;;;;;;5018751;28;20437;-80
2024/02/12 03:45:45;;;;;;;6.23;6.03;;;9.50;30.80;;;;;;5016689;28;20420;-80
2024/02/12 04:01:51;;;;;;;6.77;6.57;;;9.20;31.80;;;;;;5018519;28;20439;-80
2024/02/12 04:04:19;;;;;;;7.13;6.93;;;9.30;31.90;;;;;;5016878;28;20527;-80
2024/02/12 04:06:45;;;;;;;6.10;6.00;;;9.40;31.20;;;;;;5016498;28;20409;-80
2024/02/12 04:09:10;;;;;;;6.97;6.77;;;9.40;31.50;;;;;;5032182;28;20428;-81
2024/02/12 04:11:42;;;;;;;6.17;5.97;;;9.20;31.40;;;;;;5017043;28;20421;-81
2024/02/12 04:14:11;;;;;;;6.20;5.90;;;9.40;31.70;;;;;;5016572;28;20723;-79
2024/02/12 04:16:37;;;;;;;6.70;6.40;;;9.40;30.80;;;;;;5016995;28;20436;-78
2024/02/12 04:19:03;;;;;;;6.07;5.93;;;9.40;31.10;;;;;;5015907;28;20420;-79
2024/02/12 04:21:32;;;;;;;5.90;5.70;;;9.40;30.90;;;;;;5016048;28;20870;-79
2024/02/12 04:24:03;;;;;;;6.50;6.30;;;9.50;30.50;;;;;;5017932;28;20204;-79
2024/02/12 04:26:30;;;;;;;6.33;6.13;;;9.50;30.80;;;;;;5015626;28;20508;-79
2024/02/12 04:28:57;;;;;;;6.80;6.50;;;9.50;30.30;;;;;;5016239;28;20420;-78
2024/02/12 04:31:23;;;;;;;6.70;6.50;;;9.60;30.10;;;;;;5017618;28;20424;-79
2024/02/12 04:33:48;;;;;;;6.30;6.10;;;9.40;30.50;;;;;;5020401;28;21121;-78
2024/02/12 04:36:15;;;;;;;6.43;6.23;;;9.40;31.50;;;;;;5020417;28;20633;-79
2024/02/12 04:38:41;;;;;;;7.47;7.07;;;9.30;31.70;;;;;;5020392;28;20645;-79
2024/02/12 04:41:06;;;;;;;7.10;6.90;;;9.40;30.90;;;;;;5021491;28;20424;-78
2024/02/12 04:43:35;;;;;;;7.30;7.10;;;9.40;31.50;;;;;;5019406;28;20863;-79
2024/02/12 04:46:01;;;;;;;7.70;7.50;;;9.50;31.10;;;;;;5019310;28;20292;-79
2024/02/12 04:48:27;;;;;;;8.20;8.00;;;9.50;30.50;;;;;;5019192;28;20451;-80
2024/02/12 04:50:53;;;;;;;7.33;7.13;;;9.60;30.80;;;;;;5020860;28;20428;-79
2024/02/12 04:53:18;;;;;;;6.77;6.57;;;9.70;30.30;;;;;;5020993;28;20467;-79
2024/02/12 04:55:44;;;;;;;6.80;6.60;;;10.00;29.70;;;;;;5020712;28;20213;-79
2024/02/12 04:58:10;;;;;;;7.57;7.27;;;10.20;29.10;;;;;;5019359;28;20174;-79
2024/02/12 05:00:35;;;;;;;7.33;7.13;;;10.40;28.30;;;;;;5021207;28;20544;-79
2024/02/12 05:03:01;;;;;;;6.70;6.50;;;10.50;27.40;;;;;;5019988;28;20193;-78
2024/02/12 05:05:27;;;;;;;6.97;6.77;;;10.60;26.80;;;;;;5019695;28;20181;-79
2024/02/12 05:07:53;;;;;;;6.80;6.60;;;10.70;26.90;;;;;;5017418;28;20185;-79
2024/02/12 05:10:20;;;;;;;6.83;6.60;;;10.80;26.50;;;;;;5019124;28;20416;-79
2024/02/12 05:12:47;;;;;;;7.23;6.93;;;10.70;26.40;;;;;;5019544;28;20797;-79
2024/02/12 05:15:12;;;;;;;7.47;7.17;;;10.60;26.20;;;;;;5021165;28;20968;-79
2024/02/12 05:18:14;;;;;;;7.40;7.10;;;10.40;26.80;;;;;;5023146;28;20440;-79
2024/02/12 05:23:24;;;;;;;7.07;6.87;;;10.20;27.00;;;;;;5024113;28;20485;-79
2024/02/12 05:25:50;;;;;;;7.43;7.23;;;10.20;27.80;;;;;;5023324;28;20424;-79
2024/02/12 05:28:15;;;;;;;8.40;8.00;;;10.10;27.70;;;;;;5029141;28;20420;-79
2024/02/12 05:30:41;;;;;;;7.53;7.30;;;10.10;27.70;;;;;;5021851;28;20555;-79
2024/02/12 05:33:09;;;;;;;7.67;7.47;;;10.20;27.80;;;;;;5022542;28;20571;-78
2024/02/12 05:35:35;;;;;;;7.60;7.40;;;10.30;27.10;;;;;;5021732;28;20208;-79
2024/02/12 05:38:01;;;;;;;7.23;7.03;;;10.40;27.40;;;;;;5022024;28;20412;-79
2024/02/12 05:40:26;;;;;;;7.97;7.67;;;10.40;26.80;;;;;;5022688;28;20412;-80
2024/02/12 05:42:52;;;;;;;7.13;6.83;;;10.30;26.90;;;;;;5021191;28;20271;-78
2024/02/12 05:45:18;;;;;;;7.97;7.63;;;10.10;27.60;;;;;;5023210;28;20244;-79
2024/02/12 05:47:44;;;;;;;7.40;7.10;;;10.00;28.10;;;;;;5022865;28;20648;-79
2024/02/12 05:50:12;;;;;;;7.70;7.40;;;9.80;28.80;;;;;;5020698;28;20431;-79
2024/02/12 05:52:39;;;;;;;8.03;7.63;;;9.80;29.30;;;;;;5021136;28;20185;-78
2024/02/12 05:55:06;;;;;;;7.63;7.33;;;9.90;29.20;;;;;;5020950;28;20545;-79
2024/02/12 05:57:32;;;;;;;8.07;7.73;;;10.00;28.30;;;;;;5029849;28;20421;-78
2024/02/12 05:59:57;;;;;;;8.43;8.10;;;10.00;27.90;;;;;;5022003;28;20436;-78
2024/02/12 06:02:23;;;;;;;8.20;7.90;;;9.80;28.80;;;;;;5023612;28;20416;-79
2024/02/12 06:04:48;;;;;;;8.63;8.33;;;9.80;29.00;;;;;;5022458;28;20597;-78
2024/02/12 06:07:14;;;;;;;9.67;9.27;;;9.80;28.90;;;;;;5022961;28;20220;-79
2024/02/12 06:09:39;;;;;;;9.33;9.03;;;9.90;28.10;;;;;;5038654;28;20241;-79
2024/02/12 06:12:07;;;;;;;8.90;8.60;;;9.80;28.40;;;;;;5022797;28;20204;-79
2024/02/12 06:14:33;;;;;;;9.20;8.70;;;9.70;28.80;;;;;;5023208;28;20213;-79
2024/02/12 06:16:59;;;;;;;10.10;9.67;;;9.60;28.80;;;;;;5023390;28;20430;-79
2024/02/12 06:19:25;;;;;;;9.90;9.10;;;9.70;28.90;;;;;;5021733;28;20170;-79
2024/02/12 06:21:51;;;;;;;8.40;8.10;;;9.60;28.80;;;;;;5022060;28;20482;-79
2024/02/12 06:24:17;;;;;;;10.03;9.53;;;9.60;29.00;;;;;;5022745;28;20232;-79
2024/02/12 06:26:42;;;;;;;10.07;9.60;;;9.40;29.20;;;;;;5023319;28;20431;-79
2024/02/12 06:29:08;;;;;;;9.77;9.27;;;9.40;29.50;;;;;;5037474;28;20566;-79
2024/02/12 06:31:41;;;;;;;9.63;9.23;;;9.20;30.00;;;;;;5037933;28;20231;-78
2024/02/12 06:34:06;;;;;;;9.67;9.17;;;9.10;30.70;;;;;;5028480;28;20972;-78
2024/02/12 06:36:32;;;;;;;9.83;9.43;;;9.10;30.90;;;;;;5020581;28;20515;-77
2024/02/12 06:38:57;;;;;;;9.63;9.03;;;9.10;31.10;;;;;;5018625;28;20256;-77
2024/02/12 06:41:24;;;;;;;10.40;9.80;;;9.30;31.40;;;;;;5018281;28;20514;-78
2024/02/12 06:43:55;;;;;;;8.93;8.43;;;9.30;31.90;;;;;;5011017;28;20261;-79
2024/02/12 06:46:20;;;;;;;8.00;7.70;;;9.40;31.90;;;;;;5015008;28;20428;-78
2024/02/12 06:48:49;;;;;;;8.67;8.27;;;9.20;30.60;;;;;;5016145;28;20530;-79
2024/02/12 06:51:15;;;;;;;8.53;8.03;;;9.20;31.80;;;;;;5030641;28;20588;-79
2024/02/12 06:53:44;;;;;;;9.97;9.47;;;9.20;31.80;;;;;;5013756;28;20501;-79
2024/02/12 06:56:09;;;;;;;9.80;9.30;;;9.30;31.90;;;;;;5014235;28;20205;-79
2024/02/12 06:58:35;;;;;;;8.43;8.13;;;9.40;32.00;;;;;;5016212;28;20869;-80
2024/02/12 07:01:01;;;;;;;8.60;8.30;;;9.60;32.10;;;;;;5031536;28;20578;-79
2024/02/12 07:03:28;;;;;;;8.30;8.00;;;9.80;31.20;;;;;;5018754;28;20438;-80
2024/02/12 07:05:54;;;;;;;8.40;8.10;;;10.00;29.40;;;;;;5018506;28;20256;-79
2024/02/12 07:08:21;;;;;;;9.17;8.77;;;10.30;28.50;;;;;;5019502;28;20452;-78
2024/02/12 07:10:47;;;;;;;9.33;8.83;;;10.40;27.50;;;;;;5023209;28;20670;-79
2024/02/12 07:13:12;;;;;;;9.93;9.53;;;10.60;27.00;;;;;;5019900;28;20459;-80
2024/02/12 07:15:38;;;;;;;9.03;8.50;;;10.50;26.90;;;;;;5021312;28;20456;-79
2024/02/12 07:18:04;;;;;;;9.70;9.10;;;10.20;27.30;;;;;;5020668;28;20181;-78
2024/02/12 07:20:30;;;;;;;9.77;9.10;;;9.80;29.50;;;;;;5026035;28;20470;-78
2024/02/12 07:22:57;;;;;;;9.87;9.37;;;9.40;30.70;;;;;;5036339;28;20174;-77
2024/02/12 07:25:22;;;;;;;9.40;8.93;;;9.20;31.80;;;;;;5036351;28;20181;-79
2024/02/12 07:27:57;;;;;;;10.03;9.63;;;9.10;31.70;;;;;;5034744;28;20535;-78
2024/02/12 07:30:23;;;;;;;8.90;8.50;;;9.00;31.60;;;;;;5030094;28;20165;-77
2024/02/12 07:32:49;;;;;;;8.63;8.23;;;9.00;32.40;;;;;;5038049;28;20458;-78
2024/02/12 07:35:15;;;;;;;9.87;9.27;;;8.90;32.20;;;;;;5036881;28;20216;-79
2024/02/12 07:37:41;;;;;;;11.90;11.30;;;8.90;32.50;;;;;;5030550;28;20443;-78
2024/02/12 07:40:13;;;;;;;12.30;11.57;;;8.90;32.40;;;;;;5028053;28;20184;-76
2024/02/12 07:42:41;;;;;;;10.10;9.60;;;8.90;32.40;;;;;;5028668;28;20427;-78
2024/02/12 07:45:07;;;;;;;9.67;9.10;;;8.90;32.20;;;;;;5019734;28;20451;-78
2024/02/12 07:47:35;;;;;;;9.53;9.13;;;8.80;32.10;;;;;;5017261;28;20414;-77
2024/02/12 07:50:05;;;;;;;8.60;8.30;;;8.90;32.50;;;;;;5019821;28;20479;-78
2024/02/12 07:52:32;;;;;;;8.50;8.00;;;9.10;32.80;;;;;;5021241;28;20420;-79
2024/02/12 07:54:59;;;;;;;9.20;8.80;;;9.30;31.50;;;;;;5018793;28;20902;-78
2024/02/12 07:57:25;;;;;;;9.33;8.93;;;9.40;30.60;;;;;;5018309;28;21289;-78
2024/02/12 07:59:51;;;;;;;8.90;8.40;;;9.30;30.20;;;;;;5015559;28;20479;-81
2024/02/12 08:02:17;;;;;;;8.60;8.10;;;9.40;30.50;;;;;;5018340;28;20896;-77
2024/02/12 08:04:43;;;;;;;8.60;8.20;;;9.40;30.10;;;;;;5014275;28;20239;-78
2024/02/12 08:07:08;;;;;;;7.47;7.17;;;9.60;30.00;;;;;;5014001;28;20769;-81
2024/02/12 08:09:34;;;;;;;8.73;8.43;;;9.60;29.30;;;;;;5015588;28;20197;-82
2024/02/12 08:12:05;;;;;;;8.73;8.43;;;9.60;29.30;;;;;;5013609;28;20185;-80
2024/02/12 08:14:33;;;;;;;8.77;8.47;;;9.60;28.80;;;;;;5020168;28;20728;-80
2024/02/12 08:17:00;;;;;;;8.43;7.90;;;9.50;29.20;;;;;;5014504;28;20436;-81
2024/02/12 08:19:25;;;;;;;8.17;7.77;;;9.50;29.60;;;;;;5011546;28;20515;-80
2024/02/12 08:21:52;;;;;;;8.13;7.73;;;9.50;29.20;;;;;;5013187;28;20188;-80
2024/02/12 08:24:17;;;;;;;7.43;7.10;;;9.50;28.60;;;;;;5013533;28;20200;-80
2024/02/12 08:26:44;;;;;;;8.10;7.70;;;9.40;29.50;;;;;;5011734;28;20500;-80
2024/02/12 08:29:10;;;;;;;7.90;7.60;;;9.40;29.40;;;;;;5012898;28;20192;-80
2024/02/12 08:31:36;;;;;;;7.70;7.30;;;9.40;28.50;;;;;;5016673;28;20799;-81
2024/02/12 08:34:01;;;;;;;7.73;7.50;;;9.40;28.70;;;;;;5016225;28;20185;-81
2024/02/12 08:36:27;;;;;;;7.77;7.47;;;9.30;28.70;;;;;;5016130;28;20755;-79
2024/02/12 08:38:53;;;;;;;7.50;7.20;;;9.20;29.00;;;;;;5015074;28;20200;-79
2024/02/12 08:41:24;;;;;;;8.00;7.70;;;9.20;29.10;;;;;;5015607;28;20874;-78
2024/02/12 08:43:50;;;;;;;8.03;7.73;;;9.40;29.10;;;;;;5017912;28;20531;-79
2024/02/12 08:46:16;;;;;;;8.00;7.70;;;9.50;28.50;;;;;;5019558;28;20435;-80
2024/02/12 08:48:41;;;;;;;7.03;6.83;;;9.60;28.20;;;;;;5027180;28;20436;-79
2024/02/12 08:51:08;;;;;;;8.30;7.90;;;9.60;27.40;;;;;;5026609;28;20185;-79
2024/02/12 08:53:39;;;;;;;7.90;7.60;;;9.70;27.50;;;;;;5027115;28;20213;-78
2024/02/12 08:56:05;;;;;;;8.57;8.13;;;9.60;27.40;;;;;;5024141;28;20467;-80
2024/02/12 08:58:31;;;;;;;7.80;7.60;;;9.50;27.50;;;;;;5017010;28;20985;-77
2024/02/12 09:00:56;;;;;;;8.17;7.87;;;9.50;28.20;;;;;;5019653;28;20416;-81
2024/02/12 09:03:22;;;;;;;7.63;7.43;;;9.70;27.40;;;;;;5016998;28;20198;-80
2024/02/12 09:05:47;;;;;;;8.40;8.10;;;9.70;27.00;;;;;;5016855;28;20191;-79
2024/02/12 09:08:15;;;;;;;7.50;7.30;;;9.80;27.10;;;;;;5014105;28;20231;-80
2024/02/12 09:10:42;;;;;;;8.77;8.47;;;9.80;26.80;;;;;;5016056;28;20185;-80
2024/02/12 09:13:07;;;;;;;7.57;7.27;;;9.80;26.90;;;;;;5014368;28;21046;-81
2024/02/12 09:15:33;;;;;;;7.97;7.67;;;9.70;27.10;;;;;;5014985;28;20558;-81
2024/02/12 09:17:58;;;;;;;8.30;7.93;;;9.70;27.10;;;;;;5016017;28;20264;-78
2024/02/12 09:20:24;;;;;;;7.83;7.47;;;9.80;27.30;;;;;;5018431;28;20189;-79
2024/02/12 09:22:51;;;;;;;7.63;7.10;;;9.90;26.40;;;;;;5018581;28;20205;-78
2024/02/12 09:25:17;;;;;;;7.80;7.40;;;10.00;25.90;;;;;;5017631;28;20501;-78
2024/02/12 09:27:48;;;;;;;7.87;7.50;;;9.80;26.80;;;;;;5019954;28;20436;-78
2024/02/12 09:30:15;;;;;;;8.07;7.77;;;9.90;27.00;;;;;;5019342;28;20433;-80
2024/02/12 09:32:43;;;;;;;8.50;8.10;;;10.00;26.10;;;;;;5019166;28;20428;-80
2024/02/12 09:35:10;;;;;;;8.47;8.17;;;10.20;25.70;;;;;;5018916;28;20467;-81
2024/02/12 09:37:37;;;;;;;8.17;7.87;;;10.20;24.90;;;;;;5018174;28;20426;-80
2024/02/12 09:40:05;;;;;;;8.93;8.53;;;10.30;24.80;;;;;;5017678;28;20428;-80
2024/02/12 09:42:33;;;;;;;9.17;8.87;;;10.40;25.30;;;;;;5019487;28;20428;-78
2024/02/12 09:44:59;;;;;;;9.73;9.23;;;10.50;24.50;;;;;;5020805;28;20506;-79
2024/02/12 09:47:31;;;;;;;8.70;8.30;;;10.50;25.00;;;;;;5018779;28;20417;-78
2024/02/12 09:49:57;;;;;;;8.30;8.00;;;10.50;24.30;;;;;;5021386;28;20862;-78
2024/02/12 09:52:28;;;;;;;8.90;8.60;;;10.50;24.30;;;;;;5021428;28;20420;-79
2024/02/12 09:54:55;;;;;;;8.43;8.10;;;10.50;24.60;;;;;;5023741;28;20494;-77
2024/02/12 09:57:20;;;;;;;8.27;7.97;;;10.50;24.30;;;;;;5022007;28;20466;-77
2024/02/12 09:59:46;;;;;;;8.17;7.90;;;10.40;24.50;;;;;;5017886;28;20436;-80
2024/02/12 10:02:13;;;;;;;9.23;8.93;;;10.40;24.50;;;;;;5022036;28;20174;-78
2024/02/12 10:04:39;;;;;;;8.20;7.90;;;10.50;24.70;;;;;;5021745;28;20954;-77
2024/02/12 10:07:05;;;;;;;8.00;7.70;;;10.60;24.10;;;;;;5021466;28;20416;-78
2024/02/12 10:09:35;;;;;;;10.77;10.07;;;10.60;24.10;;;;;;5023357;28;20420;-77
2024/02/12 10:12:12;;;;;;;8.03;7.73;;;10.80;23.70;;;;;;5029482;28;20441;-78
2024/02/12 10:15:02;;;;;;;7.60;7.30;;;10.90;23.80;;;;;;5135628;22;20553;-80
2024/02/12 10:17:56;;;;;;;;;;;;;;;;;;;;;
2024/02/12 10:20:27;;;;;;;8.40;8.10;;;11.10;23.10;;;;;;5062981;28;20876;-81
2024/02/12 10:22:52;;;;;;;8.27;7.97;;;11.10;23.10;;;;;;5072837;28;20441;-80
2024/02/12 10:25:21;;;;;;;7.80;7.50;;;11.00;23.30;;;;;;5064433;28;20449;-81
2024/02/12 10:27:56;;;;;;;7.80;7.50;;;10.80;22.70;;;;;;5063433;28;20184;-80
2024/02/12 10:31:26;;;;;;;8.00;7.60;;;10.70;23.70;;;;;;5058565;28;20426;-84
2024/02/12 10:34:02;;;;;;;7.50;7.10;;;10.80;22.90;;;;;;4992734;28;20451;-80
2024/02/12 10:36:40;;;;;;;7.23;6.93;;;10.60;23.00;;;;;;5055148;28;20848;-81
2024/02/12 10:39:26;;;;;;;7.70;7.40;;;10.40;23.40;;;;;;5063107;28;20418;-81
2024/02/12 10:41:55;;;;;;;7.43;7.13;;;10.50;23.50;;;;;;5067012;28;20411;-81
2024/02/12 10:44:32;;;;;;;7.50;6.90;;;10.50;23.50;;;;;;5046347;28;20988;-80
2024/02/12 10:47:14;;;;;;;7.53;7.23;;;10.50;23.50;;;;;;5065326;28;20390;-80
2024/02/12 10:49:57;;;;;;;7.30;7.00;;;10.60;22.90;;;;;;5035069;28;20501;-82
2024/02/12 10:52:25;;;;;;;7.53;7.23;;;10.70;23.60;;;;;;5067027;28;20457;-79
2024/02/12 10:54:52;;;;;;;7.97;7.57;;;10.90;22.60;;;;;;5061110;28;20458;-80
2024/02/12 10:57:22;;;;;;;6.73;6.40;;;11.00;22.40;;;;;;5055424;28;20411;-78
2024/02/12 11:00:40;;;;;;;;;;;;;;;;;;;;;
2024/02/12 11:03:06;;;;;;;7.33;7.03;;;11.00;22.10;;;;;;4984162;28;20508;-78
2024/02/12 11:05:43;;;;;;;7.60;7.30;;;10.80;22.60;;;;;;5062349;28;20426;-80
2024/02/12 11:08:18;;;;;;;8.57;8.17;;;10.80;23.50;;;;;;5059250;28;20418;-80
2024/02/12 11:10:52;;;;;;;7.93;7.63;;;10.90;22.40;;;;;;5059679;28;20474;-82
2024/02/12 11:13:44;;;;;;;7.63;7.23;;;10.80;22.70;;;;;;5061067;28;20426;-80
2024/02/12 11:16:15;;;;;;;7.93;7.43;;;10.80;23.10;;;;;;5060375;28;20829;-80
2024/02/12 11:19:15;;;;;;;7.00;6.70;;;10.90;23.00;;;;;;5058929;28;20814;-80
2024/02/12 11:21:58;;;;;;;7.53;7.13;;;10.90;22.10;;;;;;5059430;28;20422;-82
2024/02/12 11:24:56;;;;;;;7.10;6.80;;;11.20;21.60;;;;;;5058742;28;20457;-83
2024/02/12 11:27:41;;;;;;;6.77;6.57;;;11.30;21.50;;;;;;5060191;28;20431;-80
2024/02/12 11:30:09;;;;;;;7.70;7.13;;;11.30;21.30;;;;;;5059326;28;20433;-80
2024/02/12 11:32:36;;;;;;;6.70;6.40;;;11.40;21.40;;;;;;5060456;28;20431;-80
2024/02/12 11:35:12;;;;;;;7.63;7.23;;;11.40;20.30;;;;;;5062147;28;20468;-81
2024/02/12 11:38:02;;;;;;;7.87;7.47;;;11.40;20.90;;;;;;5060302;28;20492;-81
2024/02/12 11:40:59;;;;;;;7.13;6.73;;;11.40;20.30;;;;;;5059204;28;20442;-79
2024/02/12 11:43:26;;;;;;;7.43;7.20;;;11.00;20.80;;;;;;5059861;28;20430;-79
2024/02/12 11:46:01;;;;;;;7.53;7.23;;;10.90;21.20;;;;;;5060534;28;20509;-81
2024/02/12 11:48:28;;;;;;;8.30;7.93;;;11.10;21.10;;;;;;5057442;28;20452;-79
2024/02/12 11:50:55;;;;;;;8.83;8.40;;;11.00;21.00;;;;;;5058866;28;20429;-80
2024/02/12 11:53:21;;;;;;;7.70;7.30;;;10.80;21.20;;;;;;5059549;28;20425;-82
2024/02/12 11:55:47;;;;;;;7.90;7.50;;;10.80;21.40;;;;;;5058211;28;20549;-79
2024/02/12 11:58:16;;;;;;;8.10;7.60;;;10.90;21.50;;;;;;5057928;28;20198;-82
2024/02/12 12:00:43;;;;;;;7.60;7.30;;;11.10;21.00;;;;;;5058765;28;20184;-82
2024/02/12 12:03:09;;;;;;;7.93;7.53;;;11.30;20.50;;;;;;5056920;28;20516;-80
2024/02/12 12:05:38;;;;;;;7.77;7.47;;;11.20;20.60;;;;;;5058080;28;20472;-79
2024/02/12 12:08:06;;;;;;;6.90;6.60;;;11.00;21.60;;;;;;5060553;28;20203;-81
2024/02/12 12:10:34;;;;;;;6.80;6.50;;;11.00;21.50;;;;;;5058319;28;20545;-82
2024/02/12 12:13:00;;;;;;;8.20;7.90;;;11.00;21.70;;;;;;5059535;28;20917;-81
2024/02/12 12:15:29;;;;;;;8.00;7.70;;;11.10;21.30;;;;;;5060087;28;20512;-82
2024/02/12 12:17:56;;;;;;;7.87;7.50;;;11.00;21.70;;;;;;5058192;28;20790;-82
2024/02/12 12:20:25;;;;;;;8.23;7.93;;;11.10;22.00;;;;;;5058390;28;20508;-81
2024/02/12 12:22:51;;;;;;;8.30;7.80;;;11.20;21.60;;;;;;5060071;28;20422;-80
2024/02/12 12:25:20;;;;;;;7.33;7.03;;;11.40;20.80;;;;;;5059233;28;20517;-79
2024/02/12 12:27:49;;;;;;;8.60;8.07;;;11.50;20.40;;;;;;5057971;28;20513;-80
2024/02/12 12:30:22;;;;;;;8.90;8.40;;;11.60;20.50;;;;;;5057451;28;20426;-79
2024/02/12 12:32:51;;;;;;;7.90;7.60;;;11.60;20.50;;;;;;5056817;28;20481;-82
2024/02/12 12:35:23;;;;;;;7.23;6.83;;;11.60;20.90;;;;;;5059234;28;20485;-81
2024/02/12 12:37:50;;;;;;;8.40;8.10;;;11.70;21.20;;;;;;5061650;28;20422;-82
2024/02/12 12:40:19;;;;;;;7.03;6.73;;;11.60;22.70;;;;;;5059152;28;20415;-80
2024/02/12 12:42:49;;;;;;;7.07;6.77;;;11.50;22.80;;;;;;5056316;28;20430;-82
2024/02/12 12:45:16;;;;;;;7.97;7.37;;;11.30;23.00;;;;;;5058656;28;20504;-79
2024/02/12 12:47:45;;;;;;;8.03;7.53;;;11.30;23.80;;;;;;5058655;28;20492;-81
2024/02/12 12:50:15;;;;;;;7.93;7.63;;;11.40;23.50;;;;;;5059424;28;20414;-80
2024/02/12 12:52:42;;;;;;;7.40;7.10;;;11.40;23.90;;;;;;5061507;28;20490;-82
2024/02/12 12:55:11;;;;;;;8.10;7.80;;;11.40;23.50;;;;;;5062389;28;20512;-81
2024/02/12 12:57:42;;;;;;;7.10;6.90;;;11.50;23.20;;;;;;5061333;28;20421;-80
2024/02/12 13:00:28;;;;;;;7.63;7.33;;;11.50;23.00;;;;;;5062951;28;20569;-82
2024/02/12 13:02:54;;;;;;;8.47;8.00;;;11.60;22.20;;;;;;5063827;28;20410;-82
2024/02/12 13:05:23;;;;;;;7.00;6.70;;;11.60;21.90;;;;;;5063980;28;20784;-82
2024/02/12 13:07:52;;;;;;;7.23;6.93;;;11.40;21.30;;;;;;5063311;28;20414;-80
2024/02/12 13:10:19;;;;;;;7.23;7.03;;;11.60;21.00;;;;;;5062986;28;20769;-81
2024/02/12 13:12:45;;;;;;;7.83;7.53;;;11.50;21.60;;;;;;5065952;28;20414;-80
2024/02/12 13:15:13;;;;;;;6.90;6.70;;;11.50;22.40;;;;;;5066706;28;20493;-81
2024/02/12 13:17:43;;;;;;;7.03;6.83;;;11.60;21.30;;;;;;5064774;28;20924;-82